Aeroporto :
LOGIN :

Iscrizione | Disclaimer

   EN    FR    IT 

 










Sommario :    VFR   VFR Marginale   IFR   IFR Intensivo   IFR Molto Intensivo
Visibilità : 
Base nubi : 
>= 8 km
>= 3000ft
5 / 8 km
1000 / 3000 ft
1500m / 5 km
500 / 1000 ft
800 / 1500m
200 / 500 ft
< 800m
< 200 ft
Simboli :   Temporali  Nebbia  Neve Forte  Precipitazioni Forti  Vento > 20 kt
SIGMETs :   Varie  Temporali  Ghiacco  Turbolenza  Onda orograficha  Ceneri Vulcaniche







- Altitudine del aeroporto : 459 ft
- Codice IATA : CER
- Carte del aeroporto


LFRC - Cherbourg / Maupertus

ULTIMO METAR :
  • 121530Z AUTO 22009KT 9999 -RA SCT020 BKN028 BKN036 06/03 Q1011 TEMPO SHRA BKN020TCU

METARs OBSOLETI :
  • 121500Z AUTO 19006KT 9999 BKN047 06/03 Q1011 TEMPO SHRA BKN020TCU
  • 121430Z AUTO 19008KT CAVOK 06/03 Q1011 TEMPO SHRA BKN020TCU
  • 121400Z AUTO 20009KT CAVOK 06/02 Q1011 TEMPO SHRA BKN020TCU
  • 121330Z AUTO 19010KT CAVOK 07/02 Q1011 TEMPO SHRA BKN020TCU
  • 121300Z AUTO 19008KT CAVOK 07/02 Q1010 TEMPO SHRA BKN020TCU

TAF TAF LFRC
Valido dal 12 a 15 ore il 13 a 00 ore UTC


121400Z 1215/1224 20010KT 9999 SCT030
PROB30
TEMPO 1215/1218 5000 SHRA BKN020TCU
BECMG 1218/1221 20013KT
TEMPO 1221/1224 5000 RA
BECMG 1221/1224 20020G30KT
Nessun NOTAM noto per questo aeroporto.
2 SIGMETs conosciuti per la FIR Brest (LFRR) :
 
Turbolenza severa
LFRR SIGMET 6 VALID 121600/122000 LFPW
LFRR BREST FIR/UIR SEV TURB FCST WI N4330 W00145 - N4415 W00430 - N4730 W00430 - N4730 W00215 - N4330 W00145 FL250/400 MOV SE 30KT WKN=
Turbolenza severa
LFRR SIGMET 5 VALID 121300/121600 LFPW
LFRR BREST FIR/UIR SEV TURB FCST WI N4900 W00730 - N4930 W00430 - N4515 W00300 - N4515 W00545 - N4900 W00730 FL220/420 MOV S 60KT NC=



MetMap, La meteo Aeronautica in un colpo d'occhio ! - Copyright ORBIFLY Dicembre 2007 - Disclaimer

ORBIFLY MET'MAP TEAM :

Programmazione e sviluppo : Alexandra Zaïnal
Concezione e sviluppo : Baudouin d'Aumeries
Co-Programmazione e sviluppo : Marc-Olivier Méhu
Supporto tecnico e logistico : Manuel Goepfert
Aiuto per la traduzione : Arnaldo La Scala

Contatto : metmap@orbifly.com




FONTI E CREDITI :

   NOAA